Time;durP1;ratioP1;P1;durP2;ratioP2;P2;SDS_P1;SDS_P2;PMS_P1;PMS_P2;Temp;Humidity;BMP_temperature;BMP_pressure;BME280_temperature;BME280_humidity;BME280_pressure;Samples;Min_cycle;Max_cycle;Signal;HPM_P1;HPM_P2
2023/01/03 00:02:27;;;;;;;116.80;75.30;;;;;;;4.23;91.00;101140.22;123523;1099;104280;-78
2023/01/03 00:04:58;;;;;;;120.85;74.45;;;;;;;4.21;91.39;101137.52;123546;1099;104402;-78
2023/01/03 00:07:36;;;;;;;121.30;75.73;;;;;;;4.20;91.36;101130.50;123415;1099;104373;-78
2023/01/03 00:10:10;;;;;;;118.50;75.90;;;;;;;4.20;90.81;101140.00;123450;1099;104359;-78
2023/01/03 00:12:42;;;;;;;116.43;73.67;;;;;;;4.21;91.26;101132.32;123402;1102;104508;-79
2023/01/03 00:15:14;;;;;;;119.73;74.70;;;;;;;4.23;91.29;101124.64;123555;1099;104261;-79
2023/01/03 00:17:45;;;;;;;126.20;78.67;;;;;;;4.24;90.96;101123.81;123753;1098;104349;-78
2023/01/03 00:20:17;;;;;;;127.93;78.03;;;;;;;4.26;91.49;101125.75;123615;1099;104307;-78
2023/01/03 00:22:48;;;;;;;126.57;80.70;;;;;;;4.28;90.94;101123.25;123681;1098;104299;-78
2023/01/03 00:25:20;;;;;;;122.50;78.80;;;;;;;4.28;91.65;101125.86;123685;1099;104293;-78
2023/01/03 00:27:51;;;;;;;131.97;81.23;;;;;;;4.18;90.81;101119.11;123477;1099;104272;-78
2023/01/03 00:30:22;;;;;;;135.00;85.27;;;;;;;4.07;90.90;101123.54;123508;1099;104383;-78
2023/01/03 00:32:54;;;;;;;131.60;85.03;;;;;;;4.01;91.09;101128.29;123424;1099;104377;-80
2023/01/03 00:35:25;;;;;;;129.80;83.07;;;;;;;3.96;90.29;101124.47;123711;1099;104303;-78
2023/01/03 00:37:56;;;;;;;129.00;80.35;;;;;;;3.95;90.77;101118.35;123835;1099;104278;-78
2023/01/03 00:40:27;;;;;;;125.00;80.30;;;;;;;3.96;91.37;101119.28;123709;1099;104379;-78
2023/01/03 00:45:47;;;;;;;127.83;79.87;;;;;;;3.90;90.65;101119.73;123687;1098;104268;-80
2023/01/03 00:48:18;;;;;;;125.30;80.67;;;;;;;3.85;90.79;101114.98;123717;1099;104297;-78
2023/01/03 00:50:50;;;;;;;128.07;82.63;;;;;;;3.82;90.75;101117.35;123719;1099;104245;-78
2023/01/03 00:53:21;;;;;;;129.60;81.75;;;;;;;3.75;90.44;101119.50;123719;1098;104258;-78
2023/01/03 00:55:53;;;;;;;127.60;81.63;;;;;;;3.68;90.27;101124.16;123659;1099;104352;-78
2023/01/03 00:58:24;;;;;;;126.50;79.50;;;;;;;3.53;90.17;101132.60;123741;1099;104341;-78
2023/01/03 01:00:56;;;;;;;128.00;79.77;;;;;;;3.39;89.83;101131.58;123664;1099;104223;-79
2023/01/03 01:03:30;;;;;;;132.70;82.03;;;;;;;3.32;90.29;101123.22;123738;1099;104347;-78
2023/01/03 01:06:01;;;;;;;128.65;80.12;;;;;;;3.19;89.45;101134.38;123626;1099;104270;-78
2023/01/03 01:08:32;;;;;;;124.07;78.37;;;;;;;3.11;90.29;101126.02;123730;1099;104482;-78
2023/01/03 01:11:04;;;;;;;129.77;78.53;;;;;;;3.07;90.12;101118.81;123769;1099;104358;-78
2023/01/03 01:13:36;;;;;;;128.23;79.23;;;;;;;3.09;90.17;101112.05;123831;1099;104361;-78
2023/01/03 01:16:10;;;;;;;123.47;75.23;;;;;;;3.08;90.65;101111.92;123678;1099;104348;-78
2023/01/03 01:18:43;;;;;;;130.27;80.17;;;;;;;3.08;89.88;101110.22;123748;1099;104351;-78
2023/01/03 01:21:16;;;;;;;122.47;75.93;;;;;;;3.07;90.50;101118.81;123734;1098;104645;-80
2023/01/03 01:23:48;;;;;;;122.43;76.40;;;;;;;2.98;90.04;101118.11;123696;1099;104274;-78
2023/01/03 01:26:21;;;;;;;109.27;70.43;;;;;;;2.94;90.35;101113.47;123774;1099;104686;-79
2023/01/03 01:28:53;;;;;;;104.97;67.07;;;;;;;2.95;90.42;101112.70;123648;1099;104213;-78
2023/01/03 01:31:27;;;;;;;110.43;70.40;;;;;;;2.94;89.87;101110.88;123708;1099;104245;-79
2023/01/03 01:33:58;;;;;;;111.23;70.07;;;;;;;2.87;89.54;101112.11;123703;1099;104293;-79
2023/01/03 01:36:32;;;;;;;99.80;61.77;;;;;;;2.79;89.89;101108.94;123648;1099;104373;-79
2023/01/03 01:39:05;;;;;;;96.40;64.53;;;;;;;2.70;89.92;101100.45;123678;1099;104326;-79
2023/01/03 01:45:01;;;;;;;97.67;61.57;;;;;;;2.51;89.42;101105.91;123612;1099;104725;-79
2023/01/03 01:47:54;;;;;;;98.17;61.90;;;;;;;2.36;88.87;101095.25;123643;1099;104370;-77
2023/01/03 01:50:31;;;;;;;97.00;61.50;;;;;;;2.32;89.79;101103.55;123607;1099;107026;-78
2023/01/03 01:53:05;;;;;;;98.70;61.87;;;;;;;2.30;89.39;101103.42;123578;1099;104274;-78
2023/01/03 01:55:37;;;;;;;;;;;;;;;2.30;90.42;101093.06;123622;1099;104283;-79
2023/01/03 01:58:09;;;;;;;95.77;59.77;;;;;;;2.37;90.82;101088.37;123564;1099;104331;-78
2023/01/03 02:00:43;;;;;;;95.63;59.07;;;;;;;2.43;90.17;101099.20;123560;1099;118554;-78
2023/01/03 02:03:14;;;;;;;94.80;58.80;;;;;;;2.44;89.81;101093.25;123271;1099;104331;-78
2023/01/03 02:05:49;;;;;;;94.20;57.13;;;;;;;2.36;89.87;101096.95;123502;1099;104354;-79
2023/01/03 02:08:20;;;;;;;90.80;57.57;;;;;;;2.21;89.53;101089.75;123595;1099;105606;-78
2023/01/03 02:11:12;;;;;;;94.70;57.27;;;;;;;2.11;88.88;101090.73;123246;1099;104676;-78
2023/01/03 02:13:53;;;;;;;94.70;60.67;;;;;;;2.02;89.13;101091.70;123589;1099;104358;-79
2023/01/03 02:16:49;;;;;;;92.87;59.13;;;;;;;1.95;88.81;101098.08;123606;1099;104351;-79
2023/01/03 02:19:51;;;;;;;89.20;56.87;;;;;;;1.92;89.77;101092.66;123621;1099;104313;-79
2023/01/03 02:23:12;;;;;;;82.53;53.93;;;;;;;1.90;89.69;101089.95;123708;1099;104267;-78
2023/01/03 02:26:22;;;;;;;85.63;54.57;;;;;;;1.88;89.78;101090.59;123537;1099;104321;-78
2023/01/03 02:29:30;;;;;;;92.37;54.87;;;;;;;1.82;89.76;101090.10;123364;1099;104662;-78
2023/01/03 02:32:10;;;;;;;92.60;54.57;;;;;;;1.69;89.30;101080.46;123618;1099;104397;-79
2023/01/03 02:34:50;;;;;;;94.50;56.33;;;;;;;1.59;89.57;101087.48;123621;1099;104281;-79
2023/01/03 02:37:30;;;;;;;92.53;56.00;;;;;;;1.57;89.97;101091.64;123790;1099;104342;-79
2023/01/03 02:40:09;;;;;;;92.77;55.33;;;;;;;1.53;89.40;101089.57;123619;1099;104379;-79
2023/01/03 02:43:00;;;;;;;88.40;56.90;;;;;;;1.47;89.49;101083.90;123657;1099;104271;-79
2023/01/03 02:45:50;;;;;;;95.07;56.83;;;;;;;1.41;89.51;101081.70;123704;1099;104303;-79
2023/01/03 02:48:34;;;;;;;88.90;55.07;;;;;;;1.37;89.72;101087.42;123692;1099;104838;-79
2023/01/03 02:51:13;;;;;;;90.37;56.67;;;;;;;1.40;89.85;101089.34;123786;1099;104245;-79
2023/01/03 02:53:47;;;;;;;87.93;55.67;;;;;;;1.41;89.64;101086.88;123956;1098;104379;-79
2023/01/03 02:56:23;;;;;;;83.80;54.97;;;;;;;1.48;90.21;101084.79;123745;1098;104377;-78
2023/01/03 02:59:00;;;;;;;87.03;56.23;;;;;;;1.42;90.07;101083.52;123701;1099;104309;-79
2023/01/03 03:01:32;;;;;;;89.27;55.00;;;;;;;1.44;90.28;101087.13;123630;1099;104271;-80
2023/01/03 03:04:06;;;;;;;87.60;56.43;;;;;;;1.44;90.29;101092.30;123624;1099;104369;-79
2023/01/03 03:06:43;;;;;;;88.20;55.37;;;;;;;1.41;90.12;101091.16;123723;1099;104353;-79
2023/01/03 03:09:14;;;;;;;94.63;59.13;;;;;;;1.37;89.90;101094.26;123654;1099;104824;-80
2023/01/03 03:14:52;;;;;;;89.30;55.07;;;;;;;1.38;89.94;101096.08;123401;1102;104485;-79
2023/01/03 03:17:29;;;;;;;89.67;57.37;;;;;;;1.34;89.76;101101.77;123613;1099;104242;-79
2023/01/03 03:25:49;;;;;;;98.12;57.15;;;;;;;1.10;89.75;101113.58;123631;1099;104245;-79
2023/01/03 03:28:35;;;;;;;93.57;56.70;;;;;;;1.02;89.76;101123.28;123661;1099;104284;-79
2023/01/03 03:31:12;;;;;;;94.67;58.23;;;;;;;0.94;89.91;101126.91;123599;1099;104376;-79
2023/01/03 03:33:49;;;;;;;89.00;56.70;;;;;;;0.88;89.83;101125.59;123656;1099;104271;-79
2023/01/03 03:36:29;;;;;;;89.50;53.30;;;;;;;0.88;89.84;101129.88;123643;1099;104380;-79
2023/01/03 03:39:01;;;;;;;81.87;49.10;;;;;;;0.87;89.83;101135.80;123645;1099;104283;-79
2023/01/03 03:47:30;;;;;;;78.83;44.97;;;;;;;0.79;89.67;101126.51;123670;1099;104227;-79
2023/01/03 03:50:06;;;;;;;72.83;44.40;;;;;;;0.86;90.15;101131.44;123616;1099;104475;-79
2023/01/03 03:52:38;;;;;;;76.00;43.90;;;;;;;0.89;89.90;101142.92;123533;1098;104338;-79
2023/01/03 03:55:15;;;;;;;73.53;43.57;;;;;;;0.88;89.98;101142.79;123777;1099;104273;-79
2023/01/03 03:57:51;;;;;;;81.83;45.07;;;;;;;0.80;89.46;101138.66;123621;1099;104270;-79
2023/01/03 04:00:26;;;;;;;77.55;44.60;;;;;;;0.73;89.58;101137.22;123701;1099;104274;-79
2023/01/03 04:03:00;;;;;;;80.60;45.15;;;;;;;0.70;89.85;101142.12;123669;1099;118648;-78
2023/01/03 04:05:36;;;;;;;83.80;43.60;;;;;;;0.64;89.71;101134.77;123643;1099;104380;-79
2023/01/03 04:08:09;;;;;;;82.40;44.93;;;;;;;0.61;90.32;101139.67;123589;1099;104271;-79
2023/01/03 04:10:40;;;;;;;97.55;43.75;;;;;;;0.60;90.14;101142.13;123634;1099;104344;-79
2023/01/03 04:13:12;;;;;;;78.10;43.77;;;;;;;0.57;90.73;101141.86;123881;1099;104271;-79
2023/01/03 04:15:43;;;;;;;86.43;45.57;;;;;;;0.57;90.31;101135.01;123774;1099;104224;-79
2023/01/03 04:18:14;;;;;;;82.93;44.07;;;;;;;0.63;90.50;101135.53;123714;1099;104328;-79
2023/01/03 04:20:45;;;;;;;77.65;43.25;;;;;;;0.62;90.59;101137.98;123713;1099;104738;-79
2023/01/03 04:23:16;;;;;;;74.33;42.77;;;;;;;0.59;90.33;101143.78;123805;1099;104347;-79
2023/01/03 04:25:48;;;;;;;80.87;44.70;;;;;;;0.55;90.56;101152.06;123748;1099;104197;-79
2023/01/03 04:28:20;;;;;;;78.00;44.57;;;;;;;0.52;90.08;101152.69;123841;1099;104185;-79
2023/01/03 04:30:51;;;;;;;70.87;42.60;;;;;;;0.51;90.42;101145.73;123624;1099;104290;-79
2023/01/03 04:33:23;;;;;;;74.90;41.03;;;;;;;0.52;90.41;101154.38;123660;1099;104318;-79
2023/01/03 04:35:55;;;;;;;73.83;42.00;;;;;;;0.49;90.61;101155.01;123719;1099;104233;-79
2023/01/03 04:38:26;;;;;;;75.13;43.07;;;;;;;0.50;91.08;101153.35;123789;1099;104762;-79
2023/01/03 04:41:02;;;;;;;76.20;42.17;;;;;;;0.49;90.58;101157.59;123864;1099;104345;-79
2023/01/03 04:46:24;;;;;;;79.05;40.85;;;;;;;0.45;90.89;101164.94;123957;1099;104280;-79
2023/01/03 04:48:55;;;;;;;77.33;41.30;;;;;;;0.42;90.75;101160.44;123843;1099;104258;-80
2023/01/03 04:51:27;;;;;;;73.67;40.50;;;;;;;0.41;91.05;101168.05;123825;1099;104281;-80
2023/01/03 04:53:58;;;;;;;71.80;40.80;;;;;;;0.42;90.51;101169.84;124143;1099;104251;-81
2023/01/03 04:56:32;;;;;;;73.93;42.33;;;;;;;0.42;91.19;101172.42;123905;1099;104374;-80
2023/01/03 04:59:04;;;;;;;78.77;41.60;;;;;;;0.41;90.62;101176.69;123937;1098;104303;-80
2023/01/03 05:01:35;;;;;;;76.07;42.47;;;;;;;0.42;91.12;101175.00;124017;1099;104294;-81
2023/01/03 05:04:07;;;;;;;80.83;40.00;;;;;;;0.45;91.04;101170.11;123870;1099;104252;-80
2023/01/03 05:06:38;;;;;;;87.53;39.23;;;;;;;0.46;91.27;101174.51;123861;1099;104169;-80
2023/01/03 05:09:09;;;;;;;79.77;40.40;;;;;;;0.48;91.28;101170.38;123836;1098;104345;-80
2023/01/03 05:11:41;;;;;;;77.00;39.93;;;;;;;0.50;90.80;101174.91;123736;1098;104248;-79
2023/01/03 05:14:12;;;;;;;85.50;40.07;;;;;;;0.54;91.08;101169.21;123950;1099;105472;-79
2023/01/03 05:16:44;;;;;;;88.03;42.50;;;;;;;0.59;91.23;101177.36;123533;1099;104332;-80
2023/01/03 05:19:15;;;;;;;80.00;41.10;;;;;;;0.69;91.46;101176.50;123873;1099;104316;-80
2023/01/03 05:27:20;;;;;;;78.35;42.05;;;;;;;0.94;91.68;101182.08;124142;1099;104304;-80
2023/01/03 05:29:55;;;;;;;72.97;42.97;;;;;;;1.02;92.09;101181.03;124107;1099;104165;-79
2023/01/03 05:32:28;;;;;;;80.50;42.50;;;;;;;1.13;92.19;101181.05;124120;1099;104300;-78
2023/01/03 05:34:59;;;;;;;69.60;40.90;;;;;;;1.22;91.91;101184.41;123953;1099;104364;-80
2023/01/03 05:37:30;;;;;;;72.53;38.27;;;;;;;1.21;91.84;101180.89;124056;1099;104329;-79
2023/01/03 05:40:01;;;;;;;63.17;38.67;;;;;;;1.21;91.85;101180.00;123927;1099;104242;-79
2023/01/03 05:42:32;;;;;;;57.07;33.73;;;;;;;1.24;91.90;101185.43;123904;1099;104357;-79
2023/01/03 05:45:04;;;;;;;66.00;37.30;;;;;;;1.15;92.29;101188.14;124141;1099;118450;-77
2023/01/03 05:47:35;;;;;;;66.50;35.85;;;;;;;1.09;91.93;101190.20;124155;1099;104280;-79
2023/01/03 05:50:08;;;;;;;58.27;32.33;;;;;;;1.14;92.10;101190.59;124061;1099;104347;-78
2023/01/03 05:52:39;;;;;;;67.53;36.63;;;;;;;1.18;92.31;101192.67;124079;1099;104267;-79
2023/01/03 05:55:11;;;;;;;62.33;35.43;;;;;;;1.18;92.40;101197.84;123911;1099;104239;-80
2023/01/03 05:57:43;;;;;;;61.87;34.13;;;;;;;1.15;91.53;101184.66;124158;1099;104718;-79
2023/01/03 06:00:16;;;;;;;60.20;33.77;;;;;;;1.19;91.93;101194.49;124305;1099;104166;-79
2023/01/03 06:02:48;;;;;;;61.90;35.33;;;;;;;1.19;91.94;101190.22;124361;1099;104312;-82
2023/01/03 06:05:19;;;;;;;58.53;33.13;;;;;;;1.29;92.84;101202.22;124523;1099;104277;-82
2023/01/03 06:07:51;;;;;;;59.20;32.80;;;;;;;1.31;91.75;101205.87;124702;1099;104197;-80
2023/01/03 06:10:22;;;;;;;62.83;34.93;;;;;;;1.27;91.49;101206.37;124252;1099;104489;-81
2023/01/03 06:12:53;;;;;;;58.97;33.97;;;;;;;1.29;91.63;101204.81;124814;1099;104221;-79
2023/01/03 06:15:24;;;;;;;56.57;33.13;;;;;;;1.37;92.19;101198.63;125245;1099;104700;-82
2023/01/03 06:17:56;;;;;;;59.53;33.53;;;;;;;1.40;91.71;101201.47;124862;1099;104235;-82
2023/01/03 06:20:28;;;;;;;58.93;33.50;;;;;;;1.37;91.60;101213.21;124831;1099;104178;-83
2023/01/03 06:23:00;;;;;;;59.45;32.30;;;;;;;1.32;91.44;101210.24;124906;1099;104221;-80
2023/01/03 06:25:31;;;;;;;61.70;35.17;;;;;;;1.27;91.08;101215.82;124558;1099;104278;-79
2023/01/03 06:28:02;;;;;;;62.50;33.70;;;;;;;1.20;92.07;101219.55;124922;1099;104290;-83
2023/01/03 06:30:34;;;;;;;58.40;32.37;;;;;;;1.21;91.72;101222.27;124453;1099;104246;-81
2023/01/03 06:33:05;;;;;;;58.27;33.73;;;;;;;1.22;91.90;101228.36;124454;1099;102263;-83
2023/01/03 06:35:39;;;;;;;59.33;32.57;;;;;;;1.22;91.77;101229.25;125041;1099;103793;-80
2023/01/03 06:38:11;;;;;;;59.10;32.55;;;;;;;1.19;91.78;101231.58;124879;1099;104246;-85
2023/01/03 06:40:49;;;;;;;53.27;32.07;;;;;;;1.12;91.35;101218.00;125142;1099;104169;-82
2023/01/03 06:43:20;;;;;;;55.27;32.87;;;;;;;1.20;92.05;101247.98;125133;1099;104204;-79
2023/01/03 06:54:26;;;;;;;53.50;32.00;;;;;;;1.36;91.94;101248.52;124992;1099;104169;-80
2023/01/03 06:56:58;;;;;;;54.77;32.73;;;;;;;1.44;92.45;101247.48;125390;1099;104319;-78
2023/01/03 06:59:30;;;;;;;56.10;33.53;;;;;;;1.60;92.53;101249.66;125071;1099;104267;-80
2023/01/03 07:02:02;;;;;;;57.80;33.93;;;;;;;1.69;92.66;101254.70;125181;1099;104242;-80
2023/01/03 07:04:36;;;;;;;56.83;34.50;;;;;;;1.73;92.00;101249.02;125148;1099;105532;-81
2023/01/03 07:07:07;;;;;;;57.90;35.63;;;;;;;1.80;92.53;101255.60;125163;1099;104168;-81
2023/01/03 07:09:38;;;;;;;57.43;33.87;;;;;;;1.86;92.70;101256.11;125080;1099;103000;-79
2023/01/03 07:14:58;;;;;;;58.07;33.93;;;;;;;2.07;92.88;101258.64;125274;1099;104252;-76
2023/01/03 07:17:31;;;;;;;53.73;32.63;;;;;;;2.19;92.06;101259.64;125220;1098;103009;-82
2023/01/03 07:20:03;;;;;;;49.80;29.53;;;;;;;2.25;92.28;101261.84;124723;1099;104370;-79
2023/01/03 07:22:35;;;;;;;55.67;32.13;;;;;;;2.15;91.70;101265.34;125445;1099;102908;-76
2023/01/03 07:25:08;;;;;;;52.37;30.93;;;;;;;2.04;91.10;101260.98;125148;1099;104197;-77
2023/01/03 07:27:39;;;;;;;51.23;29.37;;;;;;;1.97;91.63;101269.94;125251;1099;102600;-79
2023/01/03 07:30:14;;;;;;;55.67;31.80;;;;;;;1.95;91.79;101274.09;125084;1099;102689;-77
2023/01/03 07:32:46;;;;;;;52.03;30.27;;;;;;;1.93;91.60;101270.45;124581;1099;104363;-79
2023/01/03 07:35:17;;;;;;;54.33;30.50;;;;;;;1.92;92.29;101266.97;125217;1099;103539;-77
2023/01/03 07:37:51;;;;;;;56.63;31.50;;;;;;;1.87;91.81;101275.12;125210;1098;104239;-77
2023/01/03 07:40:21;;;;;;;;;;;;;;;1.83;92.71;101275.66;125227;1098;104287;-78
2023/01/03 07:45:43;;;;;;;56.55;30.30;;;;;;;1.78;92.78;101273.59;125172;1098;104066;-80
2023/01/03 07:48:15;;;;;;;52.93;30.23;;;;;;;1.77;92.19;101279.53;124575;1099;104245;-77
2023/01/03 07:50:48;;;;;;;52.25;31.37;;;;;;;1.77;92.13;101279.53;125091;1099;104188;-80
2023/01/03 07:53:20;;;;;;;52.67;31.17;;;;;;;1.83;92.20;101270.48;124874;1098;104166;-79
2023/01/03 07:55:52;;;;;;;52.23;31.93;;;;;;;1.91;92.57;101274.61;125129;1099;104207;-79
2023/01/03 07:58:24;;;;;;;53.77;32.53;;;;;;;2.03;92.80;101280.80;125006;1099;104274;-77
2023/01/03 08:00:56;;;;;;;55.87;33.43;;;;;;;2.14;92.77;101287.75;125211;1099;104271;-78
2023/01/03 08:03:28;;;;;;;53.53;33.00;;;;;;;2.25;92.90;101279.97;125181;1099;102028;-79
2023/01/03 08:06:04;;;;;;;53.17;32.73;;;;;;;2.33;92.07;101282.38;125291;1099;104164;-80
2023/01/03 08:08:36;;;;;;;53.23;33.60;;;;;;;2.44;92.98;101280.66;124860;1099;104469;-80
2023/01/03 08:13:59;;;;;;;59.47;36.33;;;;;;;2.86;93.44;101287.45;125421;1099;103363;-78
2023/01/03 08:16:31;;;;;;;58.73;37.30;;;;;;;3.04;93.20;101288.02;125378;1099;103383;-83
2023/01/03 08:19:04;;;;;;;55.23;32.37;;;;;;;3.20;93.04;101287.52;125319;1099;102913;-80
2023/01/03 08:21:37;;;;;;;59.88;35.40;;;;;;;3.23;92.44;101285.16;124795;1099;104382;-79
2023/01/03 08:24:09;;;;;;;62.70;35.63;;;;;;;3.22;92.80;101285.05;125322;1099;103451;-80
2023/01/03 08:26:41;;;;;;;63.07;37.50;;;;;;;3.17;92.03;101289.88;125361;1099;104165;-81
2023/01/03 08:29:13;;;;;;;64.47;38.50;;;;;;;3.19;92.38;101293.48;125419;1099;102019;-80
2023/01/03 08:31:51;;;;;;;67.47;39.23;;;;;;;3.29;92.78;101291.59;125415;1099;102989;-81
2023/01/03 08:34:24;;;;;;;61.60;37.00;;;;;;;3.48;93.20;101289.66;124946;1102;103373;-80
2023/01/03 08:37:06;;;;;;;62.47;38.13;;;;;;;3.63;92.83;101292.53;125430;1099;102907;-80
2023/01/03 08:39:43;;;;;;;61.90;36.50;;;;;;;3.81;93.07;101292.11;125763;1099;103304;-78
2023/01/03 08:42:19;;;;;;;65.73;37.97;;;;;;;3.90;92.92;101288.50;125456;1099;104210;-80
2023/01/03 08:44:57;;;;;;;60.17;36.80;;;;;;;3.90;92.86;101288.50;125259;1099;104234;-77
2023/01/03 08:47:30;;;;;;;63.97;37.07;;;;;;;3.91;93.02;101290.32;125144;1099;103198;-79
2023/01/03 08:50:03;;;;;;;55.90;33.63;;;;;;;3.96;93.03;101288.07;125412;1099;102890;-79
2023/01/03 08:52:35;;;;;;;52.60;32.10;;;;;;;4.03;93.23;101287.72;125166;1099;104274;-77
2023/01/03 08:55:09;;;;;;;57.23;33.80;;;;;;;4.14;93.30;101285.92;125187;1099;104201;-78
2023/01/03 08:57:41;;;;;;;53.63;32.13;;;;;;;4.29;94.07;101280.96;125578;1099;104245;-78
2023/01/03 09:00:15;;;;;;;52.63;31.70;;;;;;;4.45;93.90;101278.67;125301;1099;102916;-77
2023/01/03 09:02:47;;;;;;;56.03;34.03;;;;;;;4.57;94.08;101273.47;124785;1099;104169;-77
2023/01/03 09:05:21;;;;;;;58.98;33.42;;;;;;;4.72;94.18;101270.16;125326;1099;103519;-79
2023/01/03 09:07:56;;;;;;;60.20;33.27;;;;;;;4.84;94.02;101268.43;125066;1099;102780;-79
2023/01/03 09:10:28;;;;;;;59.57;34.30;;;;;;;4.94;94.21;101263.09;125079;1099;102481;-76
2023/01/03 09:13:01;;;;;;;55.93;32.50;;;;;;;5.02;94.38;101261.04;125108;1099;104290;-78
2023/01/03 09:15:35;;;;;;;53.33;31.30;;;;;;;5.11;94.05;101264.28;125318;1099;104293;-77
2023/01/03 09:18:10;;;;;;;53.50;30.80;;;;;;;5.20;94.23;101258.80;125429;1099;102122;-77
2023/01/03 09:20:41;;;;;;;51.63;31.70;;;;;;;5.35;94.66;101256.36;124876;1099;104185;-77
2023/01/03 09:23:13;;;;;;;51.47;30.83;;;;;;;5.50;94.74;101249.61;125165;1099;104260;-76
2023/01/03 09:25:46;;;;;;;55.20;32.60;;;;;;;5.61;94.59;101263.35;125269;1099;104178;-78
2023/01/03 09:28:22;;;;;;;55.83;32.83;;;;;;;5.71;94.33;101265.76;125348;1099;103600;-80
2023/01/03 09:30:53;;;;;;;50.80;31.77;;;;;;;5.83;94.18;101257.88;125476;1098;104197;-78
2023/01/03 09:33:27;;;;;;;48.70;27.40;;;;;;;5.95;94.47;101268.20;125495;1098;102699;-78
2023/01/03 09:36:04;;;;;;;48.98;29.55;;;;;;;6.10;94.60;101257.94;125375;1099;103086;-79
2023/01/03 09:38:36;;;;;;;48.07;30.43;;;;;;;6.22;94.37;101250.03;125502;1099;103000;-79
2023/01/03 09:41:26;;;;;;;49.17;29.87;;;;;;;6.32;94.35;101247.20;125492;1099;102989;-78
2023/01/03 09:44:02;;;;;;;47.90;29.10;;;;;;;6.41;94.33;101250.40;125289;1099;104275;-78
2023/01/03 09:46:35;;;;;;;49.00;30.20;;;;;;;6.52;94.54;101250.20;125378;1099;102186;-81
2023/01/03 09:49:14;;;;;;;52.30;30.20;;;;;;;6.62;94.74;101239.53;125435;1099;102717;-78
2023/01/03 10:03:44;;;;;;;41.97;25.30;;;;;;;7.37;94.99;101240.70;125045;1099;102820;-79
2023/01/03 10:06:26;;;;;;;40.93;25.20;;;;;;;7.54;94.51;101236.45;124916;1099;104133;-78
2023/01/03 10:09:14;;;;;;;45.00;26.33;;;;;;;7.68;95.05;101235.59;125355;1099;102863;-81
2023/01/03 10:11:58;;;;;;;41.93;24.10;;;;;;;7.85;94.68;101230.43;125561;1098;102208;-78
2023/01/03 10:14:45;;;;;;;42.50;24.87;;;;;;;8.02;95.47;101227.08;125585;1099;102336;-78
2023/01/03 10:17:31;;;;;;;40.00;24.13;;;;;;;8.20;95.29;101229.86;125561;1099;104433;-82
2023/01/03 10:20:26;;;;;;;41.00;24.27;;;;;;;8.34;94.84;101229.75;125279;1099;102526;-78
2023/01/03 10:22:58;;;;;;;41.67;24.97;;;;;;;8.49;94.23;101232.34;125486;1099;102491;-79
2023/01/03 10:25:31;;;;;;;44.33;25.07;;;;;;;8.59;93.82;101227.70;125227;1098;102502;-81
2023/01/03 10:28:11;;;;;;;43.55;25.30;;;;;;;8.70;94.02;101224.80;125025;1099;104163;-79
2023/01/03 10:31:02;;;;;;;40.17;24.97;;;;;;;8.79;93.71;101215.72;125560;1099;103205;-80
2023/01/03 10:33:38;;;;;;;44.97;26.70;;;;;;;8.92;93.56;101224.23;125549;1099;102519;-79
2023/01/03 10:36:11;;;;;;;41.33;24.97;;;;;;;9.02;93.71;101223.89;125343;1098;104246;-79
2023/01/03 10:38:46;;;;;;;41.03;24.63;;;;;;;9.10;94.22;101222.60;125399;1099;104269;-80
2023/01/03 10:41:30;;;;;;;40.63;25.33;;;;;;;9.17;93.29;101210.73;125204;1099;102186;-79
2023/01/03 10:44:03;;;;;;;43.97;26.13;;;;;;;9.22;93.04;101213.59;125358;1099;102247;-80
2023/01/03 10:46:49;;;;;;;39.20;25.15;;;;;;;9.31;93.47;101207.10;124831;1099;104319;-79
2023/01/03 10:49:27;;;;;;;42.50;26.17;;;;;;;9.41;93.33;101212.81;125522;1099;104163;-78
2023/01/03 10:52:17;;;;;;;44.57;25.63;;;;;;;9.51;94.00;101209.87;125213;1099;104686;-79
2023/01/03 10:54:56;;;;;;;42.67;26.97;;;;;;;9.60;94.29;101202.48;125553;1099;103255;-78
2023/01/03 10:57:44;;;;;;;43.17;25.47;;;;;;;9.69;93.79;101205.56;125614;1099;104129;-80
2023/01/03 11:00:30;;;;;;;40.97;26.03;;;;;;;9.77;93.90;101197.17;126878;1099;101887;-79
2023/01/03 11:03:15;;;;;;;43.00;27.03;;;;;;;9.84;93.77;101204.53;126496;1099;102201;-78
2023/01/03 11:05:49;;;;;;;40.33;24.77;;;;;;;9.94;93.37;101188.44;126104;1099;102624;-79
2023/01/03 11:08:35;;;;;;;42.13;25.40;;;;;;;10.01;93.18;101190.52;126714;1099;102411;-78
2023/01/03 11:11:15;;;;;;;39.60;23.67;;;;;;;10.10;93.75;101191.78;126657;1099;102112;-79
2023/01/03 11:13:47;;;;;;;39.80;22.33;;;;;;;10.22;93.36;101179.27;126467;1099;102300;-78
2023/01/03 11:16:23;;;;;;;37.60;22.07;;;;;;;10.39;93.44;101170.53;126709;1099;101860;-78
2023/01/03 11:19:03;;;;;;;35.47;21.67;;;;;;;10.54;93.36;101174.69;126887;1098;102446;-80
2023/01/03 11:21:44;;;;;;;36.63;21.90;;;;;;;10.70;93.09;101173.67;126559;1099;103135;-79
2023/01/03 11:24:29;;;;;;;34.97;20.93;;;;;;;10.85;93.25;101186.61;126168;1099;102724;-80
2023/01/03 11:27:13;;;;;;;33.97;20.20;;;;;;;10.97;92.63;101176.66;126571;1099;102052;-76
2023/01/03 11:30:08;;;;;;;34.73;20.63;;;;;;;11.08;92.21;101171.86;126832;1099;101713;-76
2023/01/03 11:32:56;;;;;;;32.53;19.53;;;;;;;11.19;91.48;101177.59;126913;1098;111616;-79
2023/01/03 11:36:04;;;;;;;32.33;18.77;;;;;;;11.31;91.51;101170.24;126823;1098;102288;-77
2023/01/03 11:38:50;;;;;;;30.80;18.60;;;;;;;11.42;91.63;101173.34;126844;1099;102071;-79
2023/01/03 11:41:47;;;;;;;35.30;19.70;;;;;;;11.50;91.47;101170.22;126755;1099;101839;-75
2023/01/03 11:44:53;;;;;;;31.50;17.53;;;;;;;11.61;90.87;101168.05;126840;1098;101427;-78
2023/01/03 11:47:35;;;;;;;30.60;18.23;;;;;;;11.72;90.56;101170.20;126605;1099;101875;-77
2023/01/03 11:50:25;;;;;;;30.00;17.63;;;;;;;11.77;90.09;101168.69;126432;1098;102958;-76
2023/01/03 11:53:02;;;;;;;31.60;18.17;;;;;;;11.86;90.79;101163.81;125475;1099;118518;-76
2023/01/03 11:56:08;;;;;;;34.17;17.63;;;;;;;11.93;89.64;101155.34;125484;1099;104156;-76
2023/01/03 11:59:37;;;;;;;29.90;17.60;;;;;;;12.03;89.19;101151.38;126587;1099;101467;-77
2023/01/03 12:02:38;;;;;;;30.93;15.50;;;;;;;12.13;88.55;101150.89;126440;1099;102655;-77
2023/01/03 12:05:33;;;;;;;30.90;15.53;;;;;;;12.21;88.32;101152.08;126833;1098;101844;-78
2023/01/03 12:08:18;;;;;;;25.80;14.07;;;;;;;12.29;88.70;101149.75;126823;1098;102859;-77
2023/01/03 12:10:58;;;;;;;28.80;14.10;;;;;;;12.40;86.97;101152.80;126858;1098;102274;-78
2023/01/03 12:13:40;;;;;;;25.43;14.20;;;;;;;12.49;87.42;101150.53;126856;1099;102694;-77
2023/01/03 12:16:18;;;;;;;23.20;11.07;;;;;;;12.58;82.75;101152.63;125615;1099;104161;-77
2023/01/03 12:18:55;;;;;;;22.13;9.53;;;;;;;12.69;83.47;101155.66;125573;1099;104169;-79
2023/01/03 12:21:34;;;;;;;17.05;7.80;;;;;;;12.74;82.86;101156.72;125404;1099;104217;-78
2023/01/03 12:24:15;;;;;;;21.50;8.50;;;;;;;12.80;81.06;101163.97;125304;1099;107072;-80
2023/01/03 12:26:52;;;;;;;18.07;8.40;;;;;;;12.85;81.18;101160.64;125000;1099;102274;-79
2023/01/03 12:29:30;;;;;;;18.03;8.47;;;;;;;12.88;79.52;101168.66;124915;1099;102803;-80
2023/01/03 12:32:08;;;;;;;18.60;8.90;;;;;;;12.90;80.45;101164.37;125370;1099;102758;-78
2023/01/03 12:34:48;;;;;;;18.50;8.27;;;;;;;12.90;79.89;101159.09;124922;1099;102838;-77
2023/01/03 12:37:27;;;;;;;20.30;9.20;;;;;;;12.91;80.52;101162.62;125239;1099;102045;-77
2023/01/03 12:40:03;;;;;;;17.53;8.70;;;;;;;12.89;78.18;101159.93;125116;1099;103538;-81